Latest Weather Observations for Coldstream

IDV60901

Issued at 2:41 pm EST Sunday 26 April 2015 (issued every 10 minutes, with the page automatically refreshed every 10 minutes)

About weather observations | Map of Melbourne area stations | Latest observations for Melbourne area | Other Formats
Station Details ID: 086383 Name: COLDSTREAM Lat: -37.72 Lon: 145.41 Height: 83.0 m
Data from the previous 72 hours. | See also: Recent months at Coldstream
Date/Time
EST
Tmp

°C
App
Tmp
°C
Dew
Point
°C
Rel
Hum
%
Delta-T

°C
Wind Press
QNH
hPa
Press
MSL
hPa
Rain
since
9 am
mm
Dir
 
Spd
km/h
Gust
km/h
Spd
kts
Gust
kts
26/02:30pm 13.7 11.1 9.4 75 2.2 WSW 13 20 7 11 1018.3 1018.3 0.2
26/02:00pm 12.8 10.3 8.3 74 2.2 SW 11 22 6 12 1018.3 1018.3 0.2
26/01:30pm 12.4 10.4 10.0 85 1.2 SSW 11 17 6 9 1018.4 1018.4 0.2
26/01:00pm 13.2 10.0 8.5 73 2.3 SSW 15 30 8 16 1018.3 1018.3 0.0
26/12:30pm 13.2 10.1 7.4 68 2.8 S 13 26 7 14 1018.4 1018.4 0.0
26/12:00pm 12.3 9.2 8.8 79 1.7 S 15 24 8 13 1018.5 1018.5 0.0
26/11:30am 12.4 9.4 9.2 81 1.6 WSW 15 20 8 11 1018.6 1018.6 0.0
26/11:00am 12.2 8.7 8.7 79 1.7 WSW 17 20 9 11 1018.6 1018.6 0.0
26/10:30am 13.6 10.9 8.9 73 2.4 SW 13 20 7 11 1018.4 1018.4 0.0
26/10:00am 13.6 11.4 8.0 69 2.8 SSW 9 15 5 8 1018.4 1018.4 0.0
26/09:30am 12.7 9.8 6.7 67 2.9 SSW 11 19 6 10 1018.3 1018.3 0.0
26/09:00am 11.8 9.6 9.4 85 1.2 W 11 15 6 8 1018.0 1018.0 7.2
26/08:30am 11.5 8.0 8.9 84 1.3 W 17 22 9 12 1017.9 1017.9 7.2
26/08:00am 11.1 9.9 9.4 89 0.9 S 6 7 3 4 1017.3 1017.3 7.2
26/07:30am 10.6 7.9 9.0 90 0.8 WNW 13 17 7 9 1016.9 1016.8 7.2
26/07:00am 11.1 9.2 9.0 87 1.0 W 9 15 5 8 1016.5 1016.4 7.2
26/06:30am 11.5 9.6 7.4 76 2.0 S 7 13 4 7 1016.1 1016.0 7.2
26/06:00am 11.6 8.8 6.9 73 2.2 S 11 15 6 8 1015.8 1015.7 7.2
26/05:30am 11.8 8.4 7.5 75 2.1 SSW 15 32 8 17 1015.6 1015.5 7.2
26/05:00am 11.8 9.6 7.9 77 1.9 SW 9 15 5 8 1015.5 1015.4 7.2
26/04:30am 11.8 9.6 7.9 77 1.9 SW 9 13 5 7 1015.2 1015.1 7.2
26/04:00am 11.6 9.8 7.9 78 1.8 SSW 7 13 4 7 1014.9 1014.8 7.2
26/03:30am 11.6 9.5 8.1 79 1.7 SW 9 13 5 7 1014.7 1014.6 7.2
26/03:00am 11.7 7.2 8.4 80 1.6 SW 22 39 12 21 1014.5 1014.4 7.2
26/02:30am 11.8 8.6 8.6 81 1.6 SW 15 26 8 14 1014.3 1014.2 7.2
26/02:00am 11.9 10.1 9.5 85 1.2 SSW 9 17 5 9 1014.3 1014.2 7.2
26/01:30am 12.0 9.6 9.9 87 1.1 SSW 13 22 7 12 1014.3 1014.2 7.2
26/01:00am 12.1 9.5 10.7 91 0.7 SW 15 22 8 12 1014.1 1014.0 7.2
26/12:30am 12.3 9.6 10.5 89 0.9 SW 15 24 8 13 1013.6 1013.6 7.2
26/12:00am 12.5 10.1 9.9 84 1.3 SW 13 22 7 12 1013.5 1013.5 7.2
 
Date/Time
EST
Tmp

°C
App
Tmp
°C
Dew
Point
°C
Rel
Hum
%
Delta-T

°C
Wind Press
QNH
hPa
Press
MSL
hPa
Rain
since
9 am
mm
Dir
 
Spd
km/h
Gust
km/h
Spd
kts
Gust
kts
25/11:30pm 12.6 9.9 10.5 87 1.1 SSW 15 24 8 13 1013.3 1013.3 7.2
25/11:00pm 12.7 10.1 10.8 88 1.0 SSW 15 28 8 15 1013.2 1013.2 7.2
25/10:30pm 12.6 10.9 11.3 92 0.7 SSW 11 19 6 10 1012.9 1012.9 7.2
25/10:00pm 12.7 10.4 11.8 94 0.5 SW 15 22 8 12 1012.7 1012.7 7.2
25/09:30pm 13.0 11.2 12.1 94 0.5 SW 13 20 7 11 1012.5 1012.5 6.6
25/09:00pm 13.1 11.7 12.3 95 0.4 WSW 11 19 6 10 1012.3 1012.3 3.4
25/08:30pm 12.8 12.3 12.0 95 0.4 SW 6 9 3 5 1012.1 1012.1 3.4
25/08:00pm 12.7 12.9 11.9 95 0.4 WSW 2 7 1 4 1011.8 1011.8 3.4
25/07:30pm 12.8 12.3 11.9 94 0.5 WSW 6 9 3 5 1011.4 1011.4 3.4
25/07:00pm 13.2 12.1 11.9 92 0.7 WSW 9 15 5 8 1011.2 1011.2 1.4
25/06:30pm 13.3 14.1 12.4 94 0.5 CALM 0 0 0 0 1010.9 1010.9 1.2
25/06:00pm 13.2 13.4 11.9 92 0.7 NW 2 9 1 5 1010.5 1010.5 1.2
25/05:30pm 13.5 14.1 11.9 90 0.9 CALM 0 0 0 0 1010.2 1010.2 1.2
25/05:00pm 13.8 14.3 11.7 87 1.1 CALM 0 6 0 3 1009.8 1009.8 1.2
25/04:30pm 13.7 13.1 11.6 87 1.1 WSW 6 7 3 4 1009.4 1009.4 1.2
25/04:00pm 13.8 11.9 11.8 88 1.1 WSW 13 17 7 9 1009.3 1009.3 1.2
25/03:30pm 13.7 12.1 11.4 86 1.2 W 11 17 6 9 1009.3 1009.3 1.2
25/03:00pm 13.9 12.3 11.4 85 1.3 WNW 11 17 6 9 1009.0 1009.0 1.2
25/02:30pm 13.5 11.5 11.4 87 1.1 W 13 17 7 9 1008.9 1008.9 1.2
25/02:00pm 13.4 11.1 11.8 90 0.9 W 15 19 8 10 1008.7 1008.7 1.2
25/01:30pm 13.8 12.1 12.5 92 0.7 W 13 17 7 9 1008.4 1008.4 1.2
25/01:00pm 13.4 11.2 12.1 92 0.7 W 15 17 8 9 1008.5 1008.5 1.2
25/12:30pm 13.5 11.7 12.2 92 0.7 W 13 15 7 8 1008.6 1008.6 1.2
25/12:00pm 13.7 14.3 11.9 89 1.0 CALM 0 0 0 0 1008.7 1008.7 1.2
25/11:30am 13.6 13.9 12.3 92 0.7 W 2 6 1 3 1008.9 1008.9 1.0
25/11:00am 12.9 13.5 12.0 94 0.5 CALM 0 0 0 0 1009.0 1009.0 1.0
25/10:30am 12.5 12.7 11.9 96 0.3 SSW 2 7 1 4 1008.9 1008.9 1.0
25/10:00am 12.0 11.3 11.4 96 0.3 WNW 6 9 3 5 1008.9 1008.9 1.0
25/09:30am 12.3 12.3 11.2 93 0.6 WSW 2 6 1 3 1008.9 1008.9 0.4
25/09:00am 12.0 12.2 10.7 92 0.7 CALM 0 0 0 0 1008.5 1008.5 3.2
25/08:30am 11.9 10.8 10.8 93 0.6 SE 7 9 4 5 1008.3 1008.3 3.2
25/08:00am 11.7 11.9 10.6 93 0.6 CALM 0 0 0 0 1008.0 1008.0 3.2
25/07:30am 11.6 10.6 10.3 92 0.7 SSW 6 9 3 5 1007.8 1007.8 3.0
25/07:00am 11.5 9.5 10.1 91 0.7 WSW 11 17 6 9 1007.7 1007.7 3.0
25/06:30am 12.0 11.1 11.5 97 0.3 WNW 7 13 4 7 1007.3 1007.3 3.0
25/06:00am 11.6 10.9 11.3 98 0.2 WSW 6 11 3 6 1006.6 1006.5 3.0
25/05:30am 11.6 12.0 11.1 97 0.3 CALM 0 0 0 0 1006.2 1006.1 3.0
25/05:00am 11.8 11.5 11.3 97 0.3 SSE 4 9 2 5 1006.0 1005.9 3.0
25/04:30am 11.9 11.6 11.4 97 0.3 S 4 9 2 5 1006.0 1005.9 2.8
25/04:00am 11.9 12.3 11.4 97 0.3 CALM 0 0 0 0 1005.9 1005.8 2.8
25/03:30am 11.9 12.3 11.4 97 0.3 CALM 0 0 0 0 1005.9 1005.8 2.8
25/03:00am 12.0 12.1 11.5 97 0.3 SSW 2 7 1 4 1006.0 1005.9 2.8
25/02:30am 11.9 12.3 11.4 97 0.3 CALM 0 6 0 3 1006.3 1006.2 2.8
25/02:00am 11.8 11.8 11.3 97 0.3 SE 2 7 1 4 1006.6 1006.5 2.8
25/01:30am 11.7 11.3 11.1 96 0.3 E 4 7 2 4 1006.6 1006.5 2.8
25/01:00am 12.3 11.6 11.5 95 0.4 S 6 7 3 4 1006.6 1006.5 2.8
25/12:30am 12.5 11.3 11.6 94 0.5 E 9 11 5 6 1006.5 1006.4 2.8
25/12:00am 12.7 12.1 11.6 93 0.6 NE 6 11 3 6 1006.7 1006.6 2.6
 
Date/Time
EST
Tmp

°C
App
Tmp
°C
Dew
Point
°C
Rel
Hum
%
Delta-T

°C
Wind Press
QNH
hPa
Press
MSL
hPa
Rain
since
9 am
mm
Dir
 
Spd
km/h
Gust
km/h
Spd
kts
Gust
kts
24/11:30pm 13.1 12.8 11.3 89 1.0 NW 4 9 2 5 1006.8 1006.8 1.8
24/11:00pm 14.0 12.9 10.6 80 1.8 WNW 7 15 4 8 1006.8 1006.8 0.0
24/10:30pm 14.8 11.2 10.0 73 2.5 W 19 30 10 16 1006.4 1006.3 0.0
24/10:00pm 16.1 14.7 10.8 71 2.8 N 9 15 5 8 1005.8 1005.7 0.0
24/09:30pm 16.1 14.3 10.8 71 2.8 N 11 17 6 9 1005.6 1005.5 0.0
24/09:00pm 16.4 14.6 10.7 69 3.1 N 11 17 6 9 1005.5 1005.4 0.0
24/08:30pm 16.2 14.3 10.5 69 3.0 N 11 19 6 10 1005.3 1005.2 0.0
24/08:00pm 16.4 14.0 10.0 66 3.4 N 13 17 7 9 1005.2 1005.1 0.0
24/07:30pm 16.5 14.5 10.1 66 3.4 N 11 19 6 10 1005.0 1004.9 0.0
24/07:00pm 17.1 15.1 10.2 64 3.7 N 11 15 6 8 1004.8 1004.7 0.0
24/06:30pm 17.4 15.0 10.1 62 3.9 N 13 17 7 9 1004.5 1004.4 0.0
24/06:00pm 17.0 15.9 10.1 64 3.7 NNE 6 9 3 5 1004.1 1004.0 0.0
24/05:30pm 18.3 15.9 9.9 58 4.5 NNW 13 24 7 13 1003.8 1003.7 0.0
24/05:00pm 19.1 17.1 10.1 56 4.9 NNW 11 19 6 10 1003.5 1003.4 0.0
24/04:30pm 19.3 16.8 9.8 54 5.1 NW 13 20 7 11 1003.1 1003.0 0.0
24/04:00pm 20.0 17.7 10.4 54 5.2 N 13 19 7 10 1002.8 1002.7 0.0
24/03:30pm 19.7 17.5 10.7 56 4.9 NNW 13 20 7 11 1003.0 1002.9 0.0
24/03:00pm 19.9 17.7 10.9 56 4.9 N 13 20 7 11 1003.1 1003.0 0.0
24/02:30pm 19.9 17.6 10.6 55 5.1 NNW 13 19 7 10 1003.1 1003.0 0.0
24/02:00pm 19.8 17.7 11.0 57 4.8 NW 13 19 7 10 1003.1 1003.0 0.0
24/01:30pm 19.4 17.2 10.7 57 4.7 NNW 13 24 7 13 1003.3 1003.2 0.0
24/01:00pm 18.9 18.6 12.6 67 3.6 NNW 6 11 3 6 1003.6 1003.5 0.0
24/12:30pm 18.9 17.9 12.2 65 3.7 NW 9 15 5 8 1003.9 1003.8 0.0
24/12:00pm 19.0 17.9 12.0 64 3.9 WNW 9 17 5 9 1004.3 1004.2 0.0
24/11:30am 18.8 17.7 13.0 69 3.3 WNW 11 15 6 8 1004.9 1004.8 0.0
24/11:00am 17.6 16.7 12.7 73 2.7 NW 9 13 5 7 1005.1 1005.0 0.0
24/10:30am 17.0 16.8 13.7 81 1.9 WNW 7 11 4 6 1005.3 1005.2 0.0
24/10:00am 15.6 15.5 13.3 86 1.3 WNW 6 7 3 4 1005.4 1005.3 0.0
24/09:30am 14.8 16.0 13.7 93 0.6 CALM 0 0 0 0 1005.5 1005.4 0.0
24/09:00am 14.6 16.0 14.4 99 0.1 CALM 0 0 0 0 1005.8 1005.7 0.0
24/08:30am 14.2 15.5 14.0 99 0.1 CALM 0 0 0 0 1005.8 1005.7 0.0
24/08:00am 13.9 15.1 13.7 99 0.1 CALM 0 0 0 0 1005.8 1005.7 0.0
24/07:30am 13.6 14.7 13.4 99 0.1 CALM 0 0 0 0 1005.5 1005.4 0.0
24/07:00am 13.1 14.0 12.9 99 0.1 CALM 0 0 0 0 1005.4 1005.3 0.0
24/06:30am 12.8 13.6 12.6 99 0.1 CALM 0 0 0 0 1005.2 1005.1 0.0
24/06:00am 11.9 12.3 11.4 97 0.3 CALM 0 0 0 0 1005.1 1005.0 0.0
24/05:30am 13.4 14.4 13.1 98 0.2 CALM 0 0 0 0 1005.4 1005.3 0.0
24/05:00am 13.9 15.1 13.7 99 0.1 CALM 0 0 0 0 1005.7 1005.6 0.0
24/04:30am 13.5 14.5 13.3 99 0.1 CALM 0 0 0 0 1005.9 1005.8 0.0
24/04:00am 13.4 14.4 13.2 99 0.1 CALM 0 0 0 0 1005.9 1005.8 0.0
24/03:30am 13.4 14.4 13.1 98 0.2 CALM 0 0 0 0 1006.2 1006.1 0.0
24/03:00am 13.2 14.1 12.9 98 0.2 CALM 0 0 0 0 1006.4 1006.3 0.0
24/02:30am 13.1 14.0 12.8 98 0.2 CALM 0 0 0 0 1006.8 1006.8 0.0
24/02:00am 13.4 14.4 13.1 98 0.2 CALM 0 0 0 0 1007.3 1007.3 0.0
24/01:30am 13.5 14.5 13.2 98 0.2 CALM 0 0 0 0 1007.6 1007.6 0.0
24/01:00am 13.4 14.4 13.1 98 0.2 CALM 0 0 0 0 1008.0 1008.0 0.0
24/12:30am 13.2 14.1 12.9 98 0.2 CALM 0 0 0 0 1008.3 1008.3 0.0
24/12:00am 12.8 13.6 12.5 98 0.2 CALM 0 0 0 0 1008.8 1008.8 0.0
 
Date/Time
EST
Tmp

°C
App
Tmp
°C
Dew
Point
°C
Rel
Hum
%
Delta-T

°C
Wind Press
QNH
hPa
Press
MSL
hPa
Rain
since
9 am
mm
Dir
 
Spd
km/h
Gust
km/h
Spd
kts
Gust
kts
23/11:30pm 13.0 13.5 12.7 98 0.2 NNW 2 6 1 3 1009.1 1009.1 0.0
23/11:00pm 13.0 13.8 12.5 97 0.3 CALM 0 0 0 0 1009.4 1009.4 0.0
23/10:30pm 13.1 13.9 12.6 97 0.3 CALM 0 2 0 1 1009.8 1009.8 0.0
23/10:00pm 13.3 14.1 12.7 96 0.3 CALM 0 0 0 0 1010.2 1010.2 0.0
23/09:30pm 13.0 13.7 12.1 94 0.5 CALM 0 0 0 0 1010.5 1010.5 0.0
23/09:00pm 13.5 14.3 12.6 94 0.5 CALM 0 6 0 3 1010.5 1010.5 0.0
23/08:30pm 13.9 14.7 12.6 92 0.7 CALM 0 0 0 0 1010.7 1010.7 0.0
23/08:00pm 14.1 15.0 12.8 92 0.7 CALM 0 0 0 0 1011.0 1011.0 0.0
23/07:30pm 14.7 15.5 12.6 87 1.2 CALM 0 6 0 3 1011.0 1011.0 0.0
23/07:00pm 15.8 15.6 12.9 83 1.6 SSE 6 9 3 5 1011.3 1011.3 0.0
23/06:30pm 16.7 17.0 13.4 81 1.9 SSW 4 7 2 4 1011.6 1011.6 0.0
23/06:00pm 17.3 16.7 13.6 79 2.1 S 9 13 5 7 1011.6 1011.6 0.0
23/05:30pm 17.9 17.0 13.6 76 2.4 SSE 11 19 6 10 1011.3 1011.3 0.0
23/05:00pm 18.6 17.4 13.9 74 2.7 SSE 13 22 7 12 1011.0 1011.0 0.0
23/04:30pm 19.0 17.4 13.8 72 3.0 SSE 15 22 8 12 1011.1 1011.1 0.0
23/04:00pm 19.5 17.8 13.7 69 3.3 S 15 22 8 12 1011.4 1011.4 0.0
23/03:30pm 20.4 18.4 13.8 66 3.8 S 17 24 9 13 1011.8 1011.8 0.0
23/03:00pm 21.2 19.3 14.1 64 4.1 S 17 26 9 14 1011.9 1011.9 0.0

Latest Capital City Observations: Canberra | Sydney | Melbourne | Brisbane | Adelaide | Perth | Hobart | Darwin

Other Formats:

Comma delimited format used in spreadsheet applications
http://www.bom.gov.au/fwo/IDV60901/IDV60901.94864.axf

JavaScript Object Notation format (JSON) in row-major order
http://www.bom.gov.au/fwo/IDV60901/IDV60901.94864.json